createdAt,value
2018-04-13T00:03:53.679Z,67.87
2018-04-13T00:10:03.848Z,68.12
2018-04-13T00:16:14.468Z,68.20
2018-04-13T00:22:18.906Z,68.52
2018-04-13T00:28:23.292Z,68.05
2018-04-13T00:34:39.312Z,69.02
2018-04-13T00:40:44.558Z,68.92
2018-04-13T00:47:06.463Z,68.51
2018-04-13T00:53:28.742Z,68.52
2018-04-13T00:59:40.357Z,68.65
2018-04-13T01:05:45.231Z,68.94
2018-04-13T01:11:49.807Z,69.12
2018-04-13T01:17:54.296Z,69.44
2018-04-13T01:23:58.652Z,70.22
2018-04-13T01:30:03.063Z,71.24
2018-04-13T01:36:07.416Z,71.69
2018-04-13T01:42:17.635Z,72.04
2018-04-13T01:48:27.942Z,71.54
2018-04-13T01:54:38.040Z,71.81
2018-04-13T02:00:42.622Z,71.22
2018-04-13T02:06:47.790Z,71.18
2018-04-13T02:12:52.307Z,71.57
2018-04-13T02:19:02.752Z,71.81
2018-04-13T02:25:14.475Z,71.86
2018-04-13T02:31:18.959Z,72.20
2018-04-13T02:37:23.370Z,72.45
2018-04-13T02:43:41.369Z,73.09
2018-04-13T02:49:51.962Z,73.46
2018-04-13T02:56:07.993Z,72.95
2018-04-13T03:02:18.979Z,73.33
2018-04-13T03:08:29.455Z,72.33
2018-04-13T03:14:33.914Z,71.47
2018-04-13T03:20:38.311Z,71.77
2018-04-13T03:26:50.186Z,71.70
2018-04-13T03:33:00.443Z,71.85
2018-04-13T03:39:16.764Z,71.70
2018-04-13T03:45:39.632Z,72.25
2018-04-13T03:51:50.292Z,72.85
2018-04-13T03:57:54.800Z,73.21
2018-04-13T04:03:59.281Z,73.57
2018-04-13T04:10:03.721Z,73.63
2018-04-13T04:16:08.087Z,73.38
2018-04-13T04:22:30.431Z,73.78
2018-04-13T04:28:35.736Z,74.02
2018-04-13T04:34:40.772Z,74.41
2018-04-13T04:40:45.953Z,74.40
2018-04-13T04:46:50.325Z,74.37
2018-04-13T04:53:00.503Z,74.86
2018-04-13T04:59:10.793Z,74.94
2018-04-13T05:05:21.127Z,75.50
2018-04-13T05:11:32.060Z,75.47
2018-04-13T05:17:42.873Z,76.49
2018-04-13T05:23:59.612Z,76.49
2018-04-13T05:30:10.532Z,76.74
2018-04-13T05:36:20.908Z,77.16
2018-04-13T05:42:31.425Z,76.99
2018-04-13T05:48:36.081Z,77.08
2018-04-13T05:54:41.730Z,76.44
2018-04-13T06:00:46.246Z,76.24
2018-04-13T06:06:50.680Z,77.09
2018-04-13T06:12:55.053Z,76.34
2018-04-13T06:18:59.516Z,76.51
2018-04-13T06:25:10.052Z,76.19
2018-04-13T06:31:21.224Z,76.29
2018-04-13T06:37:25.588Z,75.78
2018-04-13T06:43:36.651Z,75.69
2018-04-13T06:49:53.263Z,74.88
2018-04-13T06:56:03.125Z,73.95
2018-04-13T07:02:08.255Z,73.82
2018-04-13T07:08:18.729Z,73.73
2018-04-13T07:14:34.640Z,73.55
2018-04-13T07:20:51.100Z,73.31
2018-04-13T07:26:55.468Z,71.54
2018-04-13T07:32:59.839Z,72.21
2018-04-13T07:39:09.655Z,73.14
2018-04-13T07:45:31.519Z,72.05
2018-04-13T07:51:35.933Z,71.24
2018-04-13T07:57:40.295Z,70.51
2018-04-13T08:03:44.728Z,70.22
2018-04-13T08:09:49.194Z,69.96
2018-04-13T08:16:05.515Z,69.69
2018-04-13T08:22:10.679Z,68.15
2018-04-13T08:28:20.873Z,69.08
2018-04-13T08:34:25.275Z,70.78
2018-04-13T08:40:35.470Z,71.82
2018-04-13T08:46:40.622Z,73.74
2018-04-13T08:52:51.560Z,74.55
2018-04-13T08:58:56.696Z,76.50
2018-04-13T09:05:01.071Z,77.57
2018-04-13T09:11:05.730Z,78.30
2018-04-13T09:17:16.162Z,78.44
2018-04-13T09:23:26.568Z,78.51
2018-04-13T09:29:30.926Z,77.99
2018-04-13T09:35:42.643Z,77.81
2018-04-13T09:41:47.876Z,77.80
2018-04-13T09:47:52.347Z,78.07
2018-04-13T09:53:56.717Z,77.61
2018-04-13T10:00:06.992Z,76.08
2018-04-13T10:06:17.242Z,75.85
2018-04-13T10:12:21.826Z,74.81
2018-04-13T10:18:26.289Z,72.83
2018-04-13T10:24:36.735Z,69.70
2018-04-13T10:30:41.109Z,70.26
2018-04-13T10:36:51.251Z,70.35
2018-04-13T10:43:01.420Z,72.02
2018-04-13T10:49:05.825Z,73.97
2018-04-13T10:55:10.833Z,73.54
2018-04-13T11:01:21.400Z,74.91
2018-04-13T11:07:37.218Z,76.33
2018-04-13T11:13:42.191Z,75.47
2018-04-13T11:19:52.363Z,76.54
2018-04-13T11:25:56.750Z,75.04
2018-04-13T11:32:01.543Z,75.52
2018-04-13T11:38:12.363Z,76.54
2018-04-13T11:44:22.614Z,76.51
2018-04-13T11:50:27.000Z,78.17
2018-04-13T11:56:37.389Z,77.60
2018-04-13T12:02:47.304Z,76.40
2018-04-13T12:08:51.816Z,76.65
2018-04-13T12:14:56.167Z,75.35
2018-04-13T12:21:01.399Z,75.26
2018-04-13T12:27:05.865Z,75.63
2018-04-13T12:33:10.269Z,77.78
2018-04-13T12:39:14.675Z,80.08
2018-04-13T12:45:19.040Z,82.00
2018-04-13T12:51:23.401Z,82.37
2018-04-13T12:57:27.840Z,83.24
2018-04-13T13:03:32.222Z,82.76
2018-04-13T13:09:36.595Z,82.65
2018-04-13T13:15:41.788Z,82.48
2018-04-13T13:21:46.187Z,81.89
2018-04-13T13:27:50.554Z,81.95
2018-04-13T13:33:54.915Z,81.51
2018-04-13T13:39:59.280Z,82.74
2018-04-13T13:46:04.443Z,82.43
2018-04-13T13:52:08.854Z,83.57
2018-04-13T13:58:13.235Z,83.24
2018-04-13T14:04:17.593Z,82.69
2018-04-13T14:10:22.736Z,83.18
2018-04-13T14:16:27.219Z,83.64
2018-04-13T14:22:31.640Z,83.41
2018-04-13T14:28:36.802Z,84.05
2018-04-13T14:34:42.124Z,83.77
2018-04-13T14:40:47.332Z,83.09
2018-04-13T14:46:51.743Z,84.06
2018-04-13T14:52:56.145Z,83.54
2018-04-13T14:59:01.289Z,82.71
2018-04-13T15:05:05.655Z,83.43
2018-04-13T15:11:10.231Z,84.04
2018-04-13T15:17:14.720Z,83.40
2018-04-13T15:23:19.177Z,83.38
2018-04-13T15:29:24.297Z,84.35
2018-04-13T15:35:28.694Z,84.63
2018-04-13T15:41:33.194Z,85.00
2018-04-13T15:47:37.578Z,85.38
2018-04-13T15:53:41.947Z,86.33
2018-04-13T15:59:46.305Z,86.91
2018-04-13T16:05:50.750Z,87.20
2018-04-13T16:11:55.227Z,87.06
2018-04-13T16:17:59.698Z,86.49
2018-04-13T16:24:04.056Z,86.18
2018-04-13T16:30:08.484Z,86.61
2018-04-13T16:36:13.875Z,87.38
2018-04-13T16:42:18.387Z,87.21
2018-04-13T16:48:22.831Z,87.95
2018-04-13T16:54:27.199Z,87.80
2018-04-13T17:00:31.576Z,86.87
2018-04-13T17:06:36.096Z,86.66
2018-04-13T17:12:41.210Z,85.63
2018-04-13T17:18:45.725Z,84.96
2018-04-13T17:24:50.518Z,85.46
2018-04-13T17:30:54.906Z,85.97
2018-04-13T17:36:59.362Z,84.95
2018-04-13T17:43:03.752Z,84.37
2018-04-13T17:49:08.184Z,84.54
2018-04-13T17:55:13.491Z,84.66
2018-04-13T18:01:17.851Z,84.84
2018-04-13T18:07:22.221Z,84.67
2018-04-13T18:13:26.589Z,85.10
2018-04-13T18:19:30.966Z,85.54
2018-04-13T18:25:35.319Z,84.76
2018-04-13T18:31:40.471Z,84.17
2018-04-13T18:37:44.829Z,84.35
2018-04-13T18:43:49.281Z,83.34
2018-04-13T18:49:54.408Z,82.94
2018-04-13T18:55:58.845Z,83.22
2018-04-13T19:08:05.768Z,81.15
2018-04-13T19:14:10.769Z,82.09
2018-04-13T19:20:15.562Z,81.28
2018-04-13T19:26:20.039Z,81.90
2018-04-13T19:32:24.386Z,82.44
2018-04-13T19:38:28.874Z,82.13
2018-04-13T19:44:33.249Z,81.45
2018-04-13T19:50:37.628Z,82.43
2018-04-13T19:56:42.112Z,81.98
2018-04-13T20:02:46.547Z,83.05
2018-04-13T20:08:51.689Z,82.95
2018-04-13T20:14:56.237Z,82.87
2018-04-13T20:21:00.618Z,83.99
2018-04-13T20:27:05.085Z,84.49
2018-04-13T20:33:09.649Z,83.78
2018-04-13T20:39:14.143Z,83.87
2018-04-13T20:45:19.287Z,84.42
2018-04-13T20:51:23.848Z,83.95
2018-04-13T20:57:28.243Z,83.85
2018-04-13T21:03:32.610Z,84.25
2018-04-13T21:09:36.998Z,84.82
2018-04-13T21:15:41.614Z,85.41
2018-04-13T21:21:46.006Z,84.82
2018-04-13T21:27:50.436Z,85.51
2018-04-13T21:33:54.803Z,85.65
2018-04-13T21:39:59.179Z,85.93
2018-04-13T21:46:03.572Z,85.82
2018-04-13T21:52:07.940Z,85.64
2018-04-13T21:58:12.344Z,86.00
2018-04-13T22:04:17.551Z,86.15
2018-04-13T22:10:22.017Z,86.49
2018-04-13T22:16:27.165Z,86.45
2018-04-13T22:22:31.528Z,86.32
2018-04-13T22:28:35.980Z,86.03
2018-04-13T22:34:40.799Z,85.64
2018-04-13T22:40:45.354Z,85.57
2018-04-13T22:46:49.711Z,85.79
2018-04-13T22:52:54.069Z,85.30
2018-04-13T22:58:59.202Z,84.79
2018-04-13T23:05:03.665Z,84.82
2018-04-13T23:11:08.391Z,85.01
2018-04-13T23:17:13.010Z,84.02
2018-04-13T23:23:17.511Z,84.94
2018-04-13T23:29:21.902Z,85.10
2018-04-13T23:35:26.327Z,85.03
2018-04-13T23:41:31.452Z,84.69
2018-04-13T23:47:36.024Z,84.60
2018-04-13T23:53:41.792Z,84.52
2018-04-13T23:59:46.203Z,84.97
